Time;durP1;ratioP1;P1;durP2;ratioP2;P2;SDS_P1;SDS_P2;PMS_P1;PMS_P2;Temp;Humidity;BMP_temperature;BMP_pressure;BME280_temperature;BME280_humidity;BME280_pressure;Samples;Min_cycle;Max_cycle;Signal;HPM_P1;HPM_P2
2023/03/11 00:00:21;;;;;;;9.23;2.17;;;;;;;-0.21;100.00;100678.28;5072046;28;20048;-78
2023/03/11 00:02:49;;;;;;;7.95;2.05;;;;;;;-0.23;100.00;100670.59;5053894;28;20033;-78
2023/03/11 00:05:21;;;;;;;9.70;2.15;;;;;;;-0.32;100.00;100673.47;5066154;28;20063;-78
2023/03/11 00:07:46;;;;;;;9.48;2.22;;;;;;;-0.32;100.00;100673.47;5071258;28;20042;-78
2023/03/11 00:10:21;;;;;;;10.35;2.58;;;;;;;-0.43;100.00;100678.09;5070038;28;20578;-79
2023/03/11 00:12:47;;;;;;;9.07;2.60;;;;;;;-0.47;100.00;100676.53;5070044;28;20070;-78
2023/03/11 00:15:16;;;;;;;9.98;3.10;;;;;;;-0.54;100.00;100675.03;5070372;28;20024;-78
2023/03/11 00:17:41;;;;;;;10.13;3.10;;;;;;;-0.58;100.00;100674.28;5069653;28;20470;-78
2023/03/11 00:20:14;;;;;;;16.67;3.70;;;;;;;-0.61;100.00;100681.28;5070778;28;20116;-79
2023/03/11 00:22:39;;;;;;;14.27;3.70;;;;;;;-0.61;100.00;100683.88;5070599;28;20491;-79
2023/03/11 00:25:08;;;;;;;9.27;3.13;;;;;;;-0.70;100.00;100685.00;5063020;28;20028;-78
2023/03/11 00:27:33;;;;;;;11.52;3.50;;;;;;;-0.67;100.00;100685.75;5050826;28;20033;-77
2023/03/11 00:29:59;;;;;;;9.98;3.53;;;;;;;-0.79;100.00;100690.44;5051827;28;20025;-77
2023/03/11 00:32:24;;;;;;;10.75;3.65;;;;;;;-0.79;100.00;100693.03;5067142;28;20036;-77
2023/03/11 00:34:49;;;;;;;9.68;3.38;;;;;;;-0.78;100.00;100698.16;5070809;28;20051;-77
2023/03/11 00:37:15;;;;;;;11.18;3.30;;;;;;;-0.90;100.00;100703.66;5050516;28;20012;-77
2023/03/11 00:39:40;;;;;;;17.95;3.55;;;;;;;-0.95;100.00;100705.53;5051591;28;20136;-76
2023/03/11 00:42:06;;;;;;;13.20;3.33;;;;;;;-0.95;100.00;100716.69;5065040;28;21046;-77
2023/03/11 00:44:31;;;;;;;10.02;3.17;;;;;;;-0.95;100.00;100718.44;5068843;28;20361;-77
2023/03/11 00:46:58;;;;;;;11.30;2.80;;;;;;;-0.97;100.00;100713.31;5069862;28;20112;-77
2023/03/11 00:49:23;;;;;;;12.32;3.17;;;;;;;-0.93;100.00;100713.22;5070243;28;20039;-78
2023/03/11 00:51:51;;;;;;;9.70;3.15;;;;;;;-0.98;100.00;100721.94;5071506;28;20032;-77
2023/03/11 00:54:17;;;;;;;11.15;3.00;;;;;;;-1.03;100.00;100707.47;5069189;28;20029;-78
2023/03/11 00:56:42;;;;;;;15.65;3.17;;;;;;;-1.02;100.00;100715.19;5054959;28;20381;-78
2023/03/11 00:59:08;;;;;;;12.77;3.25;;;;;;;-1.07;100.00;100719.63;5066566;28;20036;-78
2023/03/11 01:01:34;;;;;;;9.60;2.70;;;;;;;-1.08;100.00;100722.25;5070048;28;20032;-78
2023/03/11 01:04:00;;;;;;;9.65;2.85;;;;;;;-1.08;100.00;100730.00;5069878;28;20028;-77
2023/03/11 01:06:26;;;;;;;13.45;3.50;;;;;;;-1.10;100.00;100734.38;5070110;28;20046;-78
2023/03/11 01:08:54;;;;;;;10.57;3.25;;;;;;;-1.09;100.00;100744.66;5068469;28;20017;-77
2023/03/11 01:11:31;;;;;;;15.05;3.40;;;;;;;-1.09;100.00;100743.81;5050441;28;20028;-78
2023/03/11 01:13:56;;;;;;;11.18;3.65;;;;;;;-1.09;100.00;100744.66;5066475;28;20039;-78
2023/03/11 01:16:22;;;;;;;21.60;3.47;;;;;;;-1.07;100.00;100752.34;5067085;28;20021;-78
2023/03/11 01:18:47;;;;;;;11.35;2.75;;;;;;;-1.04;100.00;100744.53;5069005;28;20107;-77
2023/03/11 01:21:13;;;;;;;12.43;3.33;;;;;;;-1.06;100.00;100751.47;5050637;28;20111;-77
2023/03/11 01:23:40;;;;;;;12.38;3.60;;;;;;;-1.05;100.00;100760.91;5069007;28;20064;-78
2023/03/11 01:26:06;;;;;;;10.68;3.22;;;;;;;-1.02;100.00;100748.75;5069867;28;20028;-78
2023/03/11 01:28:31;;;;;;;11.00;3.25;;;;;;;-1.04;100.00;100749.69;5050878;28;20546;-78
2023/03/11 01:31:14;;;;;;;9.35;3.45;;;;;;;-1.00;100.00;100759.03;5050246;28;20020;-77
2023/03/11 01:33:39;;;;;;;12.27;2.92;;;;;;;-1.01;100.00;100757.34;5069511;28;20074;-78
2023/03/11 01:36:05;;;;;;;12.63;3.55;;;;;;;-1.02;100.00;100755.66;5068236;28;20012;-77
2023/03/11 01:38:31;;;;;;;9.73;2.97;;;;;;;-1.04;100.00;100757.44;5068661;28;20115;-77
2023/03/11 01:40:57;;;;;;;12.52;2.92;;;;;;;-1.04;100.00;100755.69;5069031;28;20044;-78
2023/03/11 01:43:50;;;;;;;11.25;3.08;;;;;;;-1.02;100.00;100759.06;5068618;28;20028;-78
2023/03/11 01:46:20;;;;;;;12.52;4.03;;;;;;;-1.09;100.00;100749.81;5067832;28;20028;-78
2023/03/11 01:48:50;;;;;;;11.50;2.90;;;;;;;-1.08;100.00;100763.56;5057751;28;20443;-78
2023/03/11 01:51:26;;;;;;;13.07;3.08;;;;;;;-1.11;100.00;100761.91;5048071;28;20035;-78
2023/03/11 01:53:56;;;;;;;19.85;3.63;;;;;;;-1.16;100.00;100753.47;5061601;28;20100;-78
2023/03/11 01:56:22;;;;;;;11.32;2.55;;;;;;;-1.19;100.00;100757.84;5067828;28;20052;-77
2023/03/11 01:58:54;;;;;;;8.77;2.83;;;;;;;-1.19;100.00;100760.44;5070395;28;20493;-77
2023/03/11 02:01:24;;;;;;;15.18;3.15;;;;;;;-1.26;100.00;100755.41;5068920;28;20028;-77
2023/03/11 02:03:50;;;;;;;15.40;3.10;;;;;;;-1.27;100.00;100761.47;5070560;28;20384;-77
2023/03/11 02:06:22;;;;;;;10.02;2.80;;;;;;;-1.26;100.00;100763.16;5061539;28;20037;-77
2023/03/11 02:08:49;;;;;;;9.90;2.70;;;;;;;-1.30;100.00;100756.38;5050136;28;20071;-77
2023/03/11 02:11:23;;;;;;;4.78;1.20;;;;;;;-1.19;100.00;100757.84;5062767;28;20020;-77
2023/03/11 02:13:53;;;;;;;8.85;3.03;;;;;;;-1.31;100.00;100759.84;5068705;28;20025;-77
2023/03/11 02:16:19;;;;;;;10.63;3.08;;;;;;;-1.28;100.00;100764.09;5068752;28;20480;-77
2023/03/11 02:18:45;;;;;;;8.27;2.80;;;;;;;-1.26;100.00;100758.00;5068055;28;20032;-77
2023/03/11 02:21:13;;;;;;;18.40;3.40;;;;;;;-1.29;100.00;100765.81;5067008;28;20041;-77
2023/03/11 02:24:05;;;;;;;8.40;3.13;;;;;;;-1.32;100.00;100771.06;5052499;28;20447;-77
2023/03/11 02:26:50;;;;;;;10.02;3.10;;;;;;;-1.28;100.00;100762.34;5047731;28;20090;-77
2023/03/11 02:29:17;;;;;;;13.73;2.78;;;;;;;-1.28;100.00;100770.09;5061410;28;20497;-77
2023/03/11 02:31:43;;;;;;;14.65;3.13;;;;;;;-1.28;100.00;100769.25;5065372;28;20060;-77
2023/03/11 02:34:20;;;;;;;9.63;2.92;;;;;;;-1.28;100.00;100769.25;5068612;28;20093;-77
2023/03/11 02:36:46;;;;;;;10.90;3.10;;;;;;;-1.28;100.00;100770.09;5068098;28;20714;-77
2023/03/11 02:39:12;;;;;;;8.20;2.72;;;;;;;-1.24;100.00;100764.84;5056099;28;20053;-77
2023/03/11 02:41:41;;;;;;;8.75;2.70;;;;;;;-1.28;100.00;100769.25;5063734;28;20036;-78
2023/03/11 02:44:09;;;;;;;10.85;2.55;;;;;;;-1.28;100.00;100764.09;5067835;28;20048;-77
2023/03/11 02:46:37;;;;;;;12.18;2.92;;;;;;;-1.32;100.00;100765.91;5066334;28;20021;-76
2023/03/11 02:49:04;;;;;;;16.70;3.42;;;;;;;-1.30;100.00;100764.13;5066974;28;20378;-76
2023/03/11 02:51:29;;;;;;;9.48;3.03;;;;;;;-1.35;100.00;100765.16;5067141;28;20024;-77
2023/03/11 02:53:58;;;;;;;7.03;2.70;;;;;;;-1.38;100.00;100758.34;5065539;28;20024;-77
2023/03/11 02:56:24;;;;;;;10.57;3.17;;;;;;;-1.41;100.00;100760.16;5064738;28;20089;-78
2023/03/11 02:58:50;;;;;;;8.98;1.40;;;;;;;-1.31;100.00;100765.03;5068664;28;20024;-77
2023/03/11 03:01:16;;;;;;;4.07;1.10;;;;;;;-1.32;100.00;100763.31;5066344;28;20028;-76
2023/03/11 03:03:41;;;;;;;12.93;3.30;;;;;;;-1.52;100.00;100759.59;5049674;28;20115;-76
2023/03/11 03:06:07;;;;;;;5.47;1.33;;;;;;;-1.39;100.00;100766.13;5068388;28;20029;-76
2023/03/11 03:08:32;;;;;;;9.48;2.78;;;;;;;-1.48;100.00;100771.53;5068374;28;20028;-77
2023/03/11 03:10:58;;;;;;;13.63;2.80;;;;;;;-1.52;100.00;100769.91;5051023;28;20016;-76
2023/03/11 03:13:25;;;;;;;19.45;3.22;;;;;;;-1.56;100.00;100770.88;5063473;28;20031;-76
2023/03/11 03:15:54;;;;;;;11.25;3.10;;;;;;;-1.59;100.00;100779.53;5066878;28;20017;-76
2023/03/11 03:18:19;;;;;;;2.75;1.00;;;;;;;-1.46;100.00;100785.22;5068220;28;20107;-77
2023/03/11 03:20:50;;;;;;;7.80;1.90;;;;;;;-1.45;100.00;100798.09;5068572;28;20520;-77
2023/03/11 03:23:16;;;;;;;2.88;1.15;;;;;;;-1.45;100.00;100803.25;5052524;28;20373;-78
2023/03/11 03:25:43;;;;;;;9.18;1.13;;;;;;;-1.47;100.00;100810.19;5072697;28;20098;-77
2023/03/11 03:28:10;;;;;;;8.27;2.95;;;;;;;-1.66;100.00;100803.75;5069448;28;20038;-77
2023/03/11 03:30:36;;;;;;;9.30;3.08;;;;;;;-1.66;100.00;100808.94;5063888;28;20047;-78
2023/03/11 03:33:02;;;;;;;7.78;2.92;;;;;;;-1.70;100.00;100809.88;5070583;28;20025;-78
2023/03/11 03:35:27;;;;;;;9.48;2.90;;;;;;;-1.72;100.00;100811.66;5068504;28;20113;-76
2023/03/11 03:37:53;;;;;;;11.70;3.42;;;;;;;-1.71;100.00;100815.94;5071436;28;20419;-76
2023/03/11 03:40:19;;;;;;;11.90;2.90;;;;;;;-1.77;100.00;100821.22;5071448;28;20040;-77
2023/03/11 03:42:44;;;;;;;12.73;3.00;;;;;;;-1.79;100.00;100823.00;5070941;28;20024;-76
2023/03/11 03:45:10;;;;;;;12.13;3.38;;;;;;;-1.83;100.00;100822.22;5068013;28;20559;-76
2023/03/11 03:47:36;;;;;;;7.78;2.80;;;;;;;-1.78;100.00;100825.53;5053020;28;20103;-76
2023/03/11 03:50:07;;;;;;;11.88;3.35;;;;;;;-1.83;100.00;100832.53;5070032;28;20090;-77
2023/03/11 03:52:35;;;;;;;2.53;1.40;;;;;;;-1.72;100.00;100834.88;5052940;28;20492;-76
2023/03/11 03:55:00;;;;;;;8.43;1.33;;;;;;;-1.71;100.00;100839.13;5053114;28;20020;-76
2023/03/11 03:57:27;;;;;;;17.00;3.47;;;;;;;-1.86;100.00;100835.19;5070158;28;20032;-76
2023/03/11 03:59:56;;;;;;;13.43;3.45;;;;;;;-1.84;100.00;100838.59;5070414;28;20139;-77
2023/03/11 04:02:22;;;;;;;11.82;3.08;;;;;;;-1.79;100.00;100846.22;5067634;28;20102;-77
2023/03/11 04:04:48;;;;;;;13.63;3.35;;;;;;;-1.82;100.00;100841.13;5068955;28;20435;-77
2023/03/11 04:07:13;;;;;;;11.68;3.13;;;;;;;-1.81;100.00;100840.25;5070619;28;20028;-77
2023/03/11 04:09:40;;;;;;;10.25;3.35;;;;;;;-1.82;100.00;100838.56;5070461;28;20035;-77
2023/03/11 04:12:07;;;;;;;11.82;3.08;;;;;;;-1.82;100.00;100843.72;5070666;28;20040;-77
2023/03/11 04:14:43;;;;;;;13.90;3.20;;;;;;;-1.78;100.00;100847.91;5070924;28;20039;-79
2023/03/11 04:17:13;;;;;;;13.40;3.00;;;;;;;-1.80;100.00;100847.09;5052448;28;20396;-77
2023/03/11 04:19:39;;;;;;;3.97;1.30;;;;;;;-1.67;100.00;100848.50;5063987;28;20052;-79
2023/03/11 04:22:04;;;;;;;11.38;2.92;;;;;;;-1.79;100.00;100846.22;5051699;28;20083;-76
2023/03/11 04:24:30;;;;;;;13.23;3.17;;;;;;;-1.77;100.00;100839.28;5054832;28;20039;-78
2023/03/11 04:26:55;;;;;;;8.85;3.13;;;;;;;-1.79;100.00;100841.06;5051587;28;20016;-76
2023/03/11 04:29:20;;;;;;;13.32;2.95;;;;;;;-1.85;100.00;100848.94;5067438;28;20085;-76
2023/03/11 04:31:46;;;;;;;4.28;1.13;;;;;;;-1.72;100.00;100856.34;5068858;28;20483;-76
2023/03/11 04:34:11;;;;;;;9.98;3.05;;;;;;;-1.86;100.00;100852.41;5070201;28;20521;-76
2023/03/11 04:36:36;;;;;;;11.68;3.30;;;;;;;-1.84;100.00;100859.22;5070335;28;20099;-77
2023/03/11 04:39:02;;;;;;;9.82;2.85;;;;;;;-1.92;100.00;100856.81;5069672;28;20074;-77
2023/03/11 04:41:27;;;;;;;10.70;2.88;;;;;;;-1.96;100.00;100850.03;5069784;28;20024;-77
2023/03/11 04:43:53;;;;;;;9.75;3.38;;;;;;;-1.94;100.00;100855.16;5069348;28;20027;-76
2023/03/11 04:46:18;;;;;;;3.83;1.60;;;;;;;-1.86;100.00;100849.81;5052643;28;20588;-79
2023/03/11 04:48:43;;;;;;;5.15;1.30;;;;;;;-1.84;100.00;100855.78;5068294;28;20028;-77
2023/03/11 04:51:09;;;;;;;4.00;1.48;;;;;;;-1.84;100.00;100863.53;5070193;28;20020;-76
2023/03/11 04:53:34;;;;;;;8.13;2.60;;;;;;;-1.96;100.00;100855.19;5069050;28;20104;-77
2023/03/11 04:56:00;;;;;;;9.75;3.40;;;;;;;-1.96;100.00;100855.19;5049092;28;20021;-77
2023/03/11 04:58:25;;;;;;;7.35;3.03;;;;;;;-2.06;100.00;100851.09;5047270;28;20036;-77
2023/03/11 05:00:55;;;;;;;10.98;3.45;;;;;;;-2.11;100.00;100846.94;5069549;28;20063;-76
2023/03/11 05:03:20;;;;;;;15.25;3.47;;;;;;;-2.10;100.00;100854.63;5036375;28;20064;-76
2023/03/11 05:05:46;;;;;;;1.70;0.93;;;;;;;-1.98;100.00;100861.28;5053451;28;20484;-76
2023/03/11 05:08:23;;;;;;;12.95;3.50;;;;;;;-2.06;100.00;100857.97;5050545;28;20048;-75
2023/03/11 05:10:51;;;;;;;11.77;3.50;;;;;;;-2.11;100.00;100863.25;5051902;28;20036;-77
2023/03/11 05:13:17;;;;;;;9.07;3.05;;;;;;;-2.08;100.00;100863.19;5068991;28;20547;-78
2023/03/11 05:15:47;;;;;;;11.30;3.63;;;;;;;-2.16;100.00;100865.06;5069134;28;20026;-76
2023/03/11 05:18:13;;;;;;;10.35;1.95;;;;;;;-2.06;100.00;100871.72;5068809;28;20033;-77
2023/03/11 05:20:38;;;;;;;6.50;1.35;;;;;;;-2.06;100.00;100871.72;5066056;28;20491;-79
2023/03/11 05:23:04;;;;;;;7.43;3.42;;;;;;;-2.20;100.00;100871.19;5069488;28;20032;-76
2023/03/11 05:25:30;;;;;;;3.55;1.30;;;;;;;-2.10;100.00;100872.66;5068379;28;20031;-76
2023/03/11 05:28:03;;;;;;;7.35;3.17;;;;;;;-2.18;100.00;100876.31;5051412;28;20079;-76
2023/03/11 05:30:29;;;;;;;4.40;1.92;;;;;;;-2.10;100.00;100879.56;5052489;28;20362;-77
2023/03/11 05:32:55;;;;;;;10.18;2.90;;;;;;;-2.27;100.00;100885.06;5067313;28;20040;-76
2023/03/11 05:35:20;;;;;;;11.57;3.33;;;;;;;-2.34;100.00;100891.25;5068270;28;20032;-76
2023/03/11 05:37:48;;;;;;;9.25;3.00;;;;;;;-2.39;100.00;100893.06;5068079;28;20452;-76
2023/03/11 05:40:20;;;;;;;11.32;3.13;;;;;;;-2.37;100.00;100896.47;5069241;28;20136;-76
2023/03/11 05:42:46;;;;;;;9.52;3.35;;;;;;;-2.41;100.00;100899.94;5068309;28;20028;-76
2023/03/11 05:45:11;;;;;;;8.80;2.17;;;;;;;-2.30;100.00;100895.44;5069166;28;20036;-76
2023/03/11 05:47:40;;;;;;;9.10;2.72;;;;;;;-2.47;100.00;100895.75;5069539;28;20063;-78
2023/03/11 05:50:07;;;;;;;8.80;2.95;;;;;;;-2.48;100.00;100893.22;5068275;28;20108;-76
2023/03/11 05:52:33;;;;;;;7.10;2.85;;;;;;;-2.46;100.00;100901.75;5062942;28;20408;-76
2023/03/11 05:54:58;;;;;;;9.15;3.53;;;;;;;-2.48;100.00;100903.53;5067483;28;20107;-76
2023/03/11 05:57:24;;;;;;;9.95;3.30;;;;;;;-2.55;100.00;100907.94;5067911;28;20024;-76
2023/03/11 05:59:49;;;;;;;10.65;3.72;;;;;;;-2.57;100.00;100899.41;5052239;28;20354;-75
2023/03/11 06:02:14;;;;;;;10.73;3.42;;;;;;;-2.61;100.00;100902.91;5067550;28;20043;-78
2023/03/11 06:04:40;;;;;;;5.05;1.85;;;;;;;-2.47;100.00;100913.81;5067425;28;20499;-76
2023/03/11 06:07:05;;;;;;;9.40;3.30;;;;;;;-2.58;100.00;100913.16;5069166;28;20032;-76
2023/03/11 06:09:30;;;;;;;14.27;3.40;;;;;;;-2.60;100.00;100914.91;5064093;28;20155;-76
2023/03/11 06:11:56;;;;;;;7.97;1.67;;;;;;;-2.49;100.00;100917.28;5051877;28;20392;-76
2023/03/11 06:14:21;;;;;;;10.15;1.77;;;;;;;-2.48;100.00;100918.97;5050527;28;20585;-76
2023/03/11 06:16:46;;;;;;;15.23;3.67;;;;;;;-2.63;100.00;100914.97;5067008;28;20033;-76
2023/03/11 06:19:12;;;;;;;8.85;3.45;;;;;;;-2.61;100.00;100921.78;5064666;28;20028;-76
2023/03/11 06:21:37;;;;;;;2.55;1.40;;;;;;;-2.53;100.00;100926.81;5049910;28;20028;-77
2023/03/11 06:24:03;;;;;;;2.92;1.58;;;;;;;-2.52;100.00;100931.91;5050363;28;20116;-77
2023/03/11 06:26:29;;;;;;;13.40;3.28;;;;;;;-2.65;100.00;100942.50;5062609;28;20035;-76
2023/03/11 06:29:04;;;;;;;11.30;3.78;;;;;;;-2.71;100.00;100935.72;5051264;28;20030;-76
2023/03/11 06:31:38;;;;;;;6.28;1.67;;;;;;;-2.58;100.00;100944.91;5067705;28;20033;-76
2023/03/11 06:34:11;;;;;;;2.35;1.25;;;;;;;-2.55;100.00;100950.00;5049275;28;20025;-76
2023/03/11 06:36:36;;;;;;;4.57;1.45;;;;;;;-2.52;100.00;100946.53;5066737;28;20104;-76
2023/03/11 06:39:14;;;;;;;17.17;3.72;;;;;;;-2.64;100.00;100947.59;5067812;28;20131;-75
2023/03/11 06:41:42;;;;;;;12.57;3.75;;;;;;;-2.68;100.00;100956.28;5051151;28;20035;-76
2023/03/11 06:44:41;;;;;;;15.40;3.33;;;;;;;-2.60;100.00;100962.13;5048625;28;20119;-80
2023/03/11 06:47:07;;;;;;;10.48;3.50;;;;;;;-2.63;100.00;100964.75;5050643;28;20396;-79
2023/03/11 06:49:40;;;;;;;8.05;3.50;;;;;;;-2.62;100.00;100971.59;5069149;28;20029;-79
2023/03/11 06:52:09;;;;;;;5.28;2.03;;;;;;;-2.52;100.00;100970.56;5067448;28;20044;-79
2023/03/11 06:54:35;;;;;;;3.42;1.30;;;;;;;-2.49;100.00;100971.38;5068108;28;20028;-78
2023/03/11 06:57:06;;;;;;;10.85;3.50;;;;;;;-2.57;100.00;100982.66;5070869;28;20023;-77
2023/03/11 06:59:32;;;;;;;7.85;1.33;;;;;;;-2.41;100.00;100995.25;5053844;28;20025;-75
2023/03/11 07:01:58;;;;;;;10.80;3.28;;;;;;;-2.46;100.00;100997.06;5071048;28;20025;-76
2023/03/11 07:04:23;;;;;;;11.88;3.70;;;;;;;-2.41;100.00;100997.84;5071862;28;20110;-76
2023/03/11 07:06:48;;;;;;;9.93;3.33;;;;;;;-2.34;100.00;101004.59;5071123;28;20043;-76
2023/03/11 07:09:13;;;;;;;4.22;1.70;;;;;;;-2.23;100.00;101010.41;5053462;28;20035;-76
2023/03/11 07:11:39;;;;;;;4.15;2.00;;;;;;;-2.14;100.00;101005.06;5071982;28;20025;-76
2023/03/11 07:14:04;;;;;;;10.73;3.45;;;;;;;-2.04;100.00;101009.16;5070841;28;20469;-76
2023/03/11 07:16:30;;;;;;;9.95;3.28;;;;;;;-1.96;100.00;100996.97;5071716;28;20505;-79
2023/03/11 07:19:09;;;;;;;4.00;1.70;;;;;;;-1.83;100.00;101007.03;5053184;28;20020;-75
2023/03/11 07:21:38;;;;;;;14.15;3.80;;;;;;;-1.70;100.00;101009.31;5068376;28;20109;-76
2023/03/11 07:24:04;;;;;;;12.90;3.97;;;;;;;-1.61;100.00;101014.28;5072007;28;20020;-81
2023/03/11 07:26:32;;;;;;;15.98;4.30;;;;;;;-1.47;100.00;101008.84;5071171;28;20068;-78
2023/03/11 07:28:58;;;;;;;9.55;3.50;;;;;;;-1.32;100.00;101013.66;5070813;28;20027;-78
2023/03/11 07:31:32;;;;;;;11.57;3.63;;;;;;;-1.16;100.00;101018.50;5070414;28;20103;-78
2023/03/11 07:33:59;;;;;;;16.20;4.18;;;;;;;-1.06;100.00;101020.81;5070224;28;20873;-78
2023/03/11 07:36:28;;;;;;;9.50;3.10;;;;;;;-0.97;100.00;101030.06;5071570;28;20100;-78
2023/03/11 07:39:03;;;;;;;10.68;3.47;;;;;;;-0.90;100.00;101033.34;5070179;28;20035;-75
2023/03/11 07:41:33;;;;;;;3.67;1.55;;;;;;;-0.74;100.00;101030.38;5069965;28;20021;-76
2023/03/11 07:44:00;;;;;;;13.48;4.07;;;;;;;-0.59;100.00;101021.38;5053978;28;20032;-76
2023/03/11 07:46:28;;;;;;;9.95;3.45;;;;;;;-0.43;100.00;101030.44;5071651;28;20100;-76
2023/03/11 07:48:53;;;;;;;9.43;3.33;;;;;;;-0.30;100.00;101030.97;5070445;28;20037;-75
2023/03/11 07:51:25;;;;;;;10.45;2.95;;;;;;;-0.22;100.00;101034.22;5071235;28;20036;-76
2023/03/11 07:53:52;;;;;;;4.93;1.80;;;;;;;-0.07;100.00;101038.13;5053251;28;20085;-76
2023/03/11 07:56:19;;;;;;;11.57;3.63;;;;;;;-0.01;100.00;101046.53;5053806;28;20089;-77
2023/03/11 07:58:45;;;;;;;8.98;3.40;;;;;;;0.14;100.00;101041.88;5072272;28;20473;-78
2023/03/11 08:01:16;;;;;;;8.15;3.03;;;;;;;0.25;100.00;101040.66;5070909;28;20030;-75
2023/03/11 08:03:43;;;;;;;17.77;4.10;;;;;;;0.38;100.00;101045.47;5071497;28;20040;-76
2023/03/11 08:06:17;;;;;;;9.40;3.28;;;;;;;0.48;100.00;101047.78;5042994;28;20059;-76
2023/03/11 08:08:42;;;;;;;10.85;3.25;;;;;;;0.57;100.00;101047.50;5053143;28;20558;-76
2023/03/11 08:11:09;;;;;;;8.75;3.20;;;;;;;0.70;100.00;101036.78;5045804;28;20180;-76
2023/03/11 08:13:35;;;;;;;8.43;3.35;;;;;;;0.88;100.00;101041.41;5046658;28;20154;-76
2023/03/11 08:16:06;;;;;;;11.25;3.42;;;;;;;1.07;100.00;101050.28;5052251;28;20482;-76
2023/03/11 08:18:32;;;;;;;11.05;3.40;;;;;;;1.19;100.00;101047.28;5070860;28;20025;-76
2023/03/11 08:21:02;;;;;;;13.50;4.30;;;;;;;1.39;99.84;101054.44;5069852;28;20473;-75
2023/03/11 08:23:28;;;;;;;12.40;4.28;;;;;;;1.58;98.67;101054.66;5068779;28;20141;-75
2023/03/11 08:25:54;;;;;;;9.88;4.35;;;;;;;1.65;94.88;101051.00;5070638;28;20546;-77
2023/03/11 08:28:19;;;;;;;11.05;3.55;;;;;;;1.98;96.66;101054.16;5071355;28;20031;-80
2023/03/11 08:30:45;;;;;;;10.25;3.40;;;;;;;2.02;96.96;101055.75;5068111;28;20023;-77
2023/03/11 08:33:10;;;;;;;5.93;2.40;;;;;;;2.33;92.35;101058.09;5070941;28;20024;-77
2023/03/11 08:35:35;;;;;;;9.88;2.50;;;;;;;2.41;91.68;101058.66;5070498;28;20024;-77
2023/03/11 08:38:02;;;;;;;7.68;2.80;;;;;;;2.62;89.45;101069.16;5068676;28;20059;-76
2023/03/11 08:40:27;;;;;;;5.88;2.10;;;;;;;2.92;90.18;101056.75;5070283;28;20040;-76
2023/03/11 08:42:57;;;;;;;10.07;2.20;;;;;;;2.95;86.46;101060.06;5070382;28;20025;-77
2023/03/11 08:45:22;;;;;;;6.88;1.80;;;;;;;3.21;81.78;101068.59;5069638;28;20100;-76
2023/03/11 08:47:54;;;;;;;7.10;2.00;;;;;;;3.21;81.18;101073.81;5070975;28;20100;-77
2023/03/11 08:50:19;;;;;;;6.28;1.83;;;;;;;3.37;79.90;101072.28;5069774;28;20556;-77
2023/03/11 08:52:45;;;;;;;7.20;2.13;;;;;;;3.50;80.87;101072.63;5052369;28;20020;-81
2023/03/11 08:55:17;;;;;;;8.82;1.80;;;;;;;3.50;80.75;101078.66;5053069;28;20024;-81
2023/03/11 08:57:43;;;;;;;7.72;1.70;;;;;;;3.51;81.54;101075.16;5070635;28;20013;-77
2023/03/11 09:00:11;;;;;;;5.05;1.73;;;;;;;3.55;75.62;101084.50;5067418;28;20046;-77
2023/03/11 09:02:36;;;;;;;5.53;1.73;;;;;;;3.62;74.64;101087.75;5046263;28;20021;-81
2023/03/11 09:05:02;;;;;;;9.50;1.83;;;;;;;3.80;75.22;101088.72;5057047;28;20039;-81
2023/03/11 09:07:27;;;;;;;4.10;1.25;;;;;;;3.86;73.52;101085.84;5066539;28;20116;-81
2023/03/11 09:09:53;;;;;;;8.07;1.75;;;;;;;3.92;68.53;101083.81;5069214;28;20070;-77
2023/03/11 09:12:19;;;;;;;5.25;1.30;;;;;;;3.87;64.69;101082.34;5064468;28;20103;-77
2023/03/11 09:14:45;;;;;;;5.38;1.50;;;;;;;3.94;61.30;101084.59;5072567;28;20082;-77
2023/03/11 09:17:13;;;;;;;9.05;1.52;;;;;;;4.13;68.02;101089.88;5045969;28;20431;-77
2023/03/11 09:19:39;;;;;;;5.60;1.10;;;;;;;4.08;65.76;101091.84;5063001;28;20033;-77
2023/03/11 09:22:04;;;;;;;6.45;1.40;;;;;;;4.13;62.18;101089.03;5070299;28;20439;-77
2023/03/11 09:24:34;;;;;;;11.27;1.40;;;;;;;4.21;61.83;101102.56;5051222;28;20071;-77
2023/03/11 09:27:00;;;;;;;3.08;1.00;;;;;;;4.24;70.13;101098.06;5069155;28;20032;-77
2023/03/11 09:29:25;;;;;;;8.88;1.48;;;;;;;4.67;67.49;101085.72;5052814;28;20011;-77
2023/03/11 09:31:50;;;;;;;7.65;1.55;;;;;;;4.86;64.06;101102.25;5051521;28;20388;-77
2023/03/11 09:34:16;;;;;;;6.40;1.20;;;;;;;5.01;62.20;101101.50;5066727;28;20495;-77
2023/03/11 09:36:42;;;;;;;6.82;1.35;;;;;;;5.09;65.37;101100.31;5069458;28;20043;-77
2023/03/11 09:39:08;;;;;;;5.65;1.27;;;;;;;5.01;59.50;101095.44;5069676;28;20060;-80
2023/03/11 09:41:53;;;;;;;3.35;1.20;;;;;;;5.01;61.71;101091.09;5068215;28;20494;-77
2023/03/11 09:44:45;;;;;;;3.58;1.00;;;;;;;5.22;63.51;101096.22;5051713;28;20024;-77
2023/03/11 09:47:25;;;;;;;4.95;1.30;;;;;;;5.44;60.67;101094.25;5069767;28;20025;-77
2023/03/11 09:50:24;;;;;;;5.15;1.30;;;;;;;5.77;61.80;101098.72;5069596;28;20484;-78
2023/03/11 09:53:12;;;;;;;4.68;1.40;;;;;;;6.08;61.84;101101.53;5060980;28;20965;-78
2023/03/11 09:55:47;;;;;;;6.57;1.60;;;;;;;6.34;61.45;101094.09;5058073;28;20095;-78
2023/03/11 09:58:29;;;;;;;5.43;1.40;;;;;;;6.32;63.11;101088.94;5067350;28;20105;-78
2023/03/11 10:00:55;;;;;;;3.37;1.10;;;;;;;6.87;58.71;101094.69;5061119;28;20423;-78
2023/03/11 10:03:42;;;;;;;4.53;1.23;;;;;;;6.94;60.46;101089.13;5065581;28;20316;-78
2023/03/11 10:06:32;;;;;;;6.75;2.53;;;;;;;6.56;58.20;101094.66;5054357;28;20065;-78
2023/03/11 10:09:35;;;;;;;7.28;3.60;;;;;;;6.24;61.78;101091.13;5048822;28;20024;-78
2023/03/11 10:12:28;;;;;;;7.43;1.40;;;;;;;5.96;60.62;101094.28;5063402;28;20396;-76
2023/03/11 10:15:12;;;;;;;5.28;1.35;;;;;;;5.58;63.39;101094.41;5069222;28;20025;-77
2023/03/11 10:17:59;;;;;;;5.78;1.27;;;;;;;5.66;65.98;101097.50;5068954;28;20016;-76
2023/03/11 10:20:39;;;;;;;17.30;12.38;;;;;;;5.47;63.65;101091.47;5069269;28;20040;-76
2023/03/11 10:23:35;;;;;;;6.60;1.50;;;;;;;5.38;64.56;101109.34;5068571;28;20058;-77
2023/03/11 10:26:04;;;;;;;5.72;1.67;;;;;;;5.36;65.55;101112.03;5051200;28;20378;-77
2023/03/11 10:28:37;;;;;;;6.43;1.38;;;;;;;5.44;68.50;101109.91;5051407;28;20063;-77
2023/03/11 10:31:17;;;;;;;5.53;1.40;;;;;;;5.50;64.67;101114.81;5070386;28;20047;-78
2023/03/11 10:34:03;;;;;;;4.43;1.17;;;;;;;5.63;60.67;101121.16;5076244;28;20516;-78
2023/03/11 10:36:37;;;;;;;6.20;1.27;;;;;;;5.54;65.85;101113.75;5075600;28;20032;-78
2023/03/11 10:39:04;;;;;;;3.65;1.13;;;;;;;5.70;62.77;101116.47;5057121;28;20049;-77
2023/03/11 10:42:02;;;;;;;2.97;1.05;;;;;;;6.18;66.08;101122.78;5073730;28;20017;-76
2023/03/11 10:44:37;;;;;;;3.30;1.10;;;;;;;6.43;60.81;101120.59;5064192;28;20028;-77
2023/03/11 10:47:03;;;;;;;6.90;1.30;;;;;;;6.51;59.13;101114.97;5074720;28;20032;-77
2023/03/11 10:49:31;;;;;;;6.03;1.40;;;;;;;6.25;58.65;101121.53;5055550;28;20039;-75
2023/03/11 10:51:57;;;;;;;3.47;1.23;;;;;;;6.22;58.74;101130.38;5072637;28;20416;-77
2023/03/11 10:54:29;;;;;;;4.05;1.00;;;;;;;6.03;59.57;101121.81;5063224;28;20029;-77
2023/03/11 10:57:00;;;;;;;4.45;1.00;;;;;;;6.06;58.88;101118.19;5055816;28;20130;-77
2023/03/11 10:59:31;;;;;;;4.70;1.23;;;;;;;5.88;56.40;101119.91;5072400;28;20028;-77
2023/03/11 11:02:02;;;;;;;5.90;1.42;;;;;;;5.94;59.83;101115.25;5074164;28;20033;-77
2023/03/11 11:04:38;;;;;;;4.88;1.10;;;;;;;6.09;58.91;101115.44;5073228;28;20040;-77
2023/03/11 11:07:27;;;;;;;3.50;0.98;;;;;;;6.25;65.65;101124.16;5074574;28;20034;-77
2023/03/11 11:10:16;;;;;;;5.78;1.13;;;;;;;6.26;63.71;101115.41;5060306;28;20115;-77
2023/03/11 11:12:59;;;;;;;6.72;1.45;;;;;;;6.27;63.31;101115.31;5066928;28;20040;-77
2023/03/11 11:15:29;;;;;;;5.25;1.48;;;;;;;6.28;59.08;101114.38;5058714;28;20032;-76
2023/03/11 11:17:58;;;;;;;7.00;1.45;;;;;;;6.27;56.68;101123.16;5075023;28;20357;-77
2023/03/11 11:20:26;;;;;;;5.72;1.13;;;;;;;6.16;63.53;101119.41;5074101;28;20052;-76
2023/03/11 11:22:57;;;;;;;5.00;1.15;;;;;;;6.14;56.38;101119.50;5057623;28;20469;-77
2023/03/11 11:25:42;;;;;;;3.38;1.20;;;;;;;6.23;59.70;101116.41;5075458;28;20437;-77
2023/03/11 11:28:18;;;;;;;4.15;1.30;;;;;;;5.89;55.36;101116.38;5073117;28;20028;-77